METAR

EDDW 212120Z AUTO 02008KT 9999 BKN018 01/M02 Q1033

Location

EDDW
Bremen Airport

Time

212120Z
21st of the Month
21:20 Zulu / UTC
22 minutes ago

Wind

02008KT
Wind Direction 20°
North-Northeast
Wind Speed 8 knots

Visibility

9999
10 km or more

Clouds

BKN018
Broken Clouds (5878) at 1800 ft  

Temperature

01/M02
Temperature 1 °C
Dew Point -2 °C

Air Pressure

Q1033
1033 hPa